sensor_id;sensor_type;location;lat;lon;timestamp;pressure;altitude;pressure_sealevel;temperature;humidity
76086;BME280;64791;0.000;0.000;2023-05-14T00:01:13;94235.41;;;10.81;60.22
76086;BME280;64791;0.000;0.000;2023-05-14T00:03:38;94227.44;;;10.77;60.26
76086;BME280;64791;0.000;0.000;2023-05-14T00:06:05;94236.25;;;10.76;58.97
76086;BME280;64791;0.000;0.000;2023-05-14T00:08:31;94227.13;;;10.81;59.02
76086;BME280;64791;0.000;0.000;2023-05-14T00:10:56;94227.31;;;10.83;58.93
76086;BME280;64791;0.000;0.000;2023-05-14T00:13:22;94215.19;;;10.86;59.00
76086;BME280;64791;0.000;0.000;2023-05-14T00:15:47;94222.50;;;10.83;59.70
76086;BME280;64791;0.000;0.000;2023-05-14T00:18:13;94216.47;;;10.85;60.23
76086;BME280;64791;0.000;0.000;2023-05-14T00:20:39;94220.38;;;10.89;60.34
76086;BME280;64791;0.000;0.000;2023-05-14T00:23:05;94206.72;;;10.84;59.07
76086;BME280;64791;0.000;0.000;2023-05-14T00:25:30;94218.09;;;10.80;58.70
76086;BME280;64791;0.000;0.000;2023-05-14T00:27:56;94207.06;;;10.80;59.08
76086;BME280;64791;0.000;0.000;2023-05-14T00:30:21;94221.53;;;10.73;59.06
76086;BME280;64791;0.000;0.000;2023-05-14T00:32:47;94211.25;;;10.74;59.64
76086;BME280;64791;0.000;0.000;2023-05-14T00:35:13;94204.78;;;10.71;59.29
76086;BME280;64791;0.000;0.000;2023-05-14T00:37:38;94203.91;;;10.76;59.76
76086;BME280;64791;0.000;0.000;2023-05-14T00:40:04;94199.47;;;10.73;59.23
76086;BME280;64791;0.000;0.000;2023-05-14T00:42:31;94191.84;;;10.66;60.46
76086;BME280;64791;0.000;0.000;2023-05-14T00:44:56;94197.31;;;10.58;59.93
76086;BME280;64791;0.000;0.000;2023-05-14T00:47:22;94187.78;;;10.60;59.32
76086;BME280;64791;0.000;0.000;2023-05-14T00:49:48;94185.72;;;10.60;60.45
76086;BME280;64791;0.000;0.000;2023-05-14T00:52:14;94187.41;;;10.63;60.44
76086;BME280;64791;0.000;0.000;2023-05-14T00:54:39;94185.53;;;10.58;61.21
76086;BME280;64791;0.000;0.000;2023-05-14T00:57:05;94184.19;;;10.51;60.60
76086;BME280;64791;0.000;0.000;2023-05-14T00:59:31;94186.22;;;10.51;61.00
76086;BME280;64791;0.000;0.000;2023-05-14T01:01:56;94185.69;;;10.52;61.25
76086;BME280;64791;0.000;0.000;2023-05-14T01:04:22;94188.97;;;10.51;60.89
76086;BME280;64791;0.000;0.000;2023-05-14T01:06:55;94186.38;;;10.45;59.42
76086;BME280;64791;0.000;0.000;2023-05-14T01:09:27;94176.41;;;10.42;60.18
76086;BME280;64791;0.000;0.000;2023-05-14T01:11:59;94172.38;;;10.43;60.03
76086;BME280;64791;0.000;0.000;2023-05-14T01:14:37;94173.88;;;10.44;59.85
76086;BME280;64791;0.000;0.000;2023-05-14T01:17:05;94172.97;;;10.49;59.12
76086;BME280;64791;0.000;0.000;2023-05-14T01:21:58;94164.75;;;10.57;59.39
76086;BME280;64791;0.000;0.000;2023-05-14T01:24:23;94170.59;;;10.53;60.20
76086;BME280;64791;0.000;0.000;2023-05-14T01:26:49;94181.72;;;10.40;60.15
76086;BME280;64791;0.000;0.000;2023-05-14T01:29:17;94187.97;;;10.41;58.66
76086;BME280;64791;0.000;0.000;2023-05-14T01:31:45;94199.56;;;10.39;59.94
76086;BME280;64791;0.000;0.000;2023-05-14T01:34:11;94199.75;;;10.41;60.28
76086;BME280;64791;0.000;0.000;2023-05-14T01:36:38;94210.38;;;10.37;60.18
76086;BME280;64791;0.000;0.000;2023-05-14T01:39:05;94204.31;;;10.39;60.00
76086;BME280;64791;0.000;0.000;2023-05-14T01:41:34;94205.41;;;10.36;59.13
76086;BME280;64791;0.000;0.000;2023-05-14T01:44:00;94200.63;;;10.36;59.08
76086;BME280;64791;0.000;0.000;2023-05-14T01:46:29;94205.41;;;10.36;58.50
76086;BME280;64791;0.000;0.000;2023-05-14T01:48:55;94206.13;;;10.36;59.30
76086;BME280;64791;0.000;0.000;2023-05-14T01:51:20;94215.69;;;10.35;59.09
76086;BME280;64791;0.000;0.000;2023-05-14T01:53:46;94219.53;;;10.32;59.39
76086;BME280;64791;0.000;0.000;2023-05-14T01:56:11;94209.97;;;10.33;59.86
76086;BME280;64791;0.000;0.000;2023-05-14T01:58:37;94215.09;;;10.29;59.93
76086;BME280;64791;0.000;0.000;2023-05-14T02:01:03;94227.19;;;10.26;59.63
76086;BME280;64791;0.000;0.000;2023-05-14T02:03:28;94227.00;;;10.24;59.25
76086;BME280;64791;0.000;0.000;2023-05-14T02:05:54;94227.53;;;10.23;59.47
76086;BME280;64791;0.000;0.000;2023-05-14T02:08:19;94224.78;;;10.23;59.79
76086;BME280;64791;0.000;0.000;2023-05-14T02:10:45;94222.34;;;10.19;59.59
76086;BME280;64791;0.000;0.000;2023-05-14T02:13:11;94221.06;;;10.20;59.29
76086;BME280;64791;0.000;0.000;2023-05-14T02:15:37;94222.53;;;10.21;58.71
76086;BME280;64791;0.000;0.000;2023-05-14T02:18:02;94232.09;;;10.20;59.50
76086;BME280;64791;0.000;0.000;2023-05-14T02:20:28;94232.22;;;10.15;59.82
76086;BME280;64791;0.000;0.000;2023-05-14T02:22:54;94223.34;;;10.09;60.70
76086;BME280;64791;0.000;0.000;2023-05-14T02:25:19;94224.75;;;10.02;61.31
76086;BME280;64791;0.000;0.000;2023-05-14T02:27:45;94222.44;;;9.93;61.02
76086;BME280;64791;0.000;0.000;2023-05-14T02:30:11;94217.06;;;9.88;62.02
76086;BME280;64791;0.000;0.000;2023-05-14T02:32:37;94223.03;;;9.78;62.47
76086;BME280;64791;0.000;0.000;2023-05-14T02:35:02;94225.16;;;9.72;62.96
76086;BME280;64791;0.000;0.000;2023-05-14T02:37:28;94222.97;;;9.71;62.02
76086;BME280;64791;0.000;0.000;2023-05-14T02:39:54;94208.78;;;9.67;62.18
76086;BME280;64791;0.000;0.000;2023-05-14T02:42:21;94205.06;;;9.64;62.22
76086;BME280;64791;0.000;0.000;2023-05-14T02:44:47;94205.06;;;9.64;62.25
76086;BME280;64791;0.000;0.000;2023-05-14T02:47:12;94210.38;;;9.62;63.30
76086;BME280;64791;0.000;0.000;2023-05-14T02:49:38;94226.69;;;9.60;62.17
76086;BME280;64791;0.000;0.000;2023-05-14T02:52:04;94220.97;;;9.58;62.82
76086;BME280;64791;0.000;0.000;2023-05-14T02:54:30;94238.75;;;9.57;63.05
76086;BME280;64791;0.000;0.000;2023-05-14T02:56:55;94239.50;;;9.58;63.05
76086;BME280;64791;0.000;0.000;2023-05-14T02:59:21;94236.75;;;9.58;63.42
76086;BME280;64791;0.000;0.000;2023-05-14T03:01:47;94236.97;;;9.60;63.03
76086;BME280;64791;0.000;0.000;2023-05-14T03:04:13;94223.06;;;9.65;62.08
76086;BME280;64791;0.000;0.000;2023-05-14T03:06:39;94233.34;;;9.65;63.56
76086;BME280;64791;0.000;0.000;2023-05-14T03:09:04;94238.13;;;9.64;61.71
76086;BME280;64791;0.000;0.000;2023-05-14T03:11:30;94236.22;;;9.59;62.41
76086;BME280;64791;0.000;0.000;2023-05-14T03:13:55;94223.19;;;9.60;62.74
76086;BME280;64791;0.000;0.000;2023-05-14T03:16:21;94226.16;;;9.62;63.04
76086;BME280;64791;0.000;0.000;2023-05-14T03:18:48;94225.41;;;9.61;63.04
76086;BME280;64791;0.000;0.000;2023-05-14T03:21:13;94218.44;;;9.60;62.94
76086;BME280;64791;0.000;0.000;2023-05-14T03:23:39;94209.84;;;9.64;62.44
76086;BME280;64791;0.000;0.000;2023-05-14T03:26:05;94199.78;;;9.66;62.52
76086;BME280;64791;0.000;0.000;2023-05-14T03:28:30;94190.22;;;9.67;62.72
76086;BME280;64791;0.000;0.000;2023-05-14T03:30:58;94194.47;;;9.68;62.79
76086;BME280;64791;0.000;0.000;2023-05-14T03:33:24;94191.72;;;9.68;62.88
76086;BME280;64791;0.000;0.000;2023-05-14T03:35:49;94188.97;;;9.68;64.01
76086;BME280;64791;0.000;0.000;2023-05-14T03:38:16;94206.34;;;9.63;65.82
76086;BME280;64791;0.000;0.000;2023-05-14T03:40:44;94201.16;;;9.60;65.10
76086;BME280;64791;0.000;0.000;2023-05-14T03:43:10;94199.38;;;9.62;64.14
76086;BME280;64791;0.000;0.000;2023-05-14T03:45:36;94201.56;;;9.64;64.42
76086;BME280;64791;0.000;0.000;2023-05-14T03:48:01;94211.31;;;9.65;64.37
76086;BME280;64791;0.000;0.000;2023-05-14T03:50:28;94197.22;;;9.68;64.54
76086;BME280;64791;0.000;0.000;2023-05-14T03:52:54;94201.97;;;9.68;65.19
76086;BME280;64791;0.000;0.000;2023-05-14T03:55:19;94215.53;;;9.66;66.54
76086;BME280;64791;0.000;0.000;2023-05-14T03:57:46;94215.00;;;9.67;66.64
76086;BME280;64791;0.000;0.000;2023-05-14T04:00:12;94216.16;;;9.72;66.43
76086;BME280;64791;0.000;0.000;2023-05-14T04:02:44;94225.38;;;9.74;67.51
76086;BME280;64791;0.000;0.000;2023-05-14T04:05:09;94222.72;;;9.82;66.63
76086;BME280;64791;0.000;0.000;2023-05-14T04:07:35;94206.78;;;9.88;66.41
76086;BME280;64791;0.000;0.000;2023-05-14T04:10:01;94216.81;;;9.99;64.84
76086;BME280;64791;0.000;0.000;2023-05-14T04:12:27;94229.94;;;10.06;65.10
76086;BME280;64791;0.000;0.000;2023-05-14T04:14:52;94224.84;;;10.10;64.25
76086;BME280;64791;0.000;0.000;2023-05-14T04:17:18;94241.56;;;10.12;64.48
76086;BME280;64791;0.000;0.000;2023-05-14T04:19:44;94245.06;;;10.12;64.49
76086;BME280;64791;0.000;0.000;2023-05-14T04:22:09;94246.53;;;10.13;64.06
76086;BME280;64791;0.000;0.000;2023-05-14T04:24:35;94238.81;;;10.12;63.99
76086;BME280;64791;0.000;0.000;2023-05-14T04:27:00;94228.94;;;10.16;62.66
76086;BME280;64791;0.000;0.000;2023-05-14T04:29:26;94237.06;;;10.22;63.33
76086;BME280;64791;0.000;0.000;2023-05-14T04:31:51;94241.63;;;10.19;65.27
76086;BME280;64791;0.000;0.000;2023-05-14T04:34:17;94239.97;;;10.16;65.07
76086;BME280;64791;0.000;0.000;2023-05-14T04:36:43;94250.78;;;10.14;64.12
76086;BME280;64791;0.000;0.000;2023-05-14T04:39:09;94251.31;;;10.13;64.40
76086;BME280;64791;0.000;0.000;2023-05-14T04:41:37;94254.25;;;10.15;63.29
76086;BME280;64791;0.000;0.000;2023-05-14T04:44:03;94253.19;;;10.18;62.82
76086;BME280;64791;0.000;0.000;2023-05-14T04:46:28;94257.84;;;10.23;62.93
76086;BME280;64791;0.000;0.000;2023-05-14T04:48:54;94260.94;;;10.19;63.08
76086;BME280;64791;0.000;0.000;2023-05-14T04:51:20;94260.94;;;10.19;62.92
76086;BME280;64791;0.000;0.000;2023-05-14T04:53:46;94250.66;;;10.20;63.66
76086;BME280;64791;0.000;0.000;2023-05-14T04:56:12;94260.53;;;10.15;64.61
76086;BME280;64791;0.000;0.000;2023-05-14T04:58:37;94270.28;;;10.16;64.14
76086;BME280;64791;0.000;0.000;2023-05-14T05:01:03;94271.63;;;10.23;62.74
76086;BME280;64791;0.000;0.000;2023-05-14T05:03:29;94276.72;;;10.19;63.44
76086;BME280;64791;0.000;0.000;2023-05-14T05:05:55;94264.56;;;10.14;64.72
76086;BME280;64791;0.000;0.000;2023-05-14T05:08:21;94283.53;;;10.18;64.92
76086;BME280;64791;0.000;0.000;2023-05-14T05:10:46;94278.44;;;10.09;66.06
76086;BME280;64791;0.000;0.000;2023-05-14T05:13:12;94265.88;;;10.00;66.55
76086;BME280;64791;0.000;0.000;2023-05-14T05:15:37;94287.84;;;9.93;67.90
76086;BME280;64791;0.000;0.000;2023-05-14T05:18:03;94287.19;;;9.87;66.86
76086;BME280;64791;0.000;0.000;2023-05-14T05:20:28;94300.88;;;9.92;68.54
76086;BME280;64791;0.000;0.000;2023-05-14T05:22:54;94310.22;;;9.76;70.73
76086;BME280;64791;0.000;0.000;2023-05-14T05:25:19;94310.97;;;9.76;70.19
76086;BME280;64791;0.000;0.000;2023-05-14T05:27:45;94325.16;;;9.67;70.10
76086;BME280;64791;0.000;0.000;2023-05-14T05:30:11;94328.44;;;9.66;71.26
76086;BME280;64791;0.000;0.000;2023-05-14T05:32:36;94341.59;;;9.73;69.06
76086;BME280;64791;0.000;0.000;2023-05-14T05:35:02;94324.44;;;9.80;69.31
76086;BME280;64791;0.000;0.000;2023-05-14T05:37:28;94338.06;;;9.86;70.65
76086;BME280;64791;0.000;0.000;2023-05-14T05:39:54;94347.28;;;9.88;70.58
76086;BME280;64791;0.000;0.000;2023-05-14T05:42:20;94332.56;;;9.86;69.75
76086;BME280;64791;0.000;0.000;2023-05-14T05:44:46;94344.84;;;9.85;70.97
76086;BME280;64791;0.000;0.000;2023-05-14T05:47:12;94350.81;;;9.75;71.91
76086;BME280;64791;0.000;0.000;2023-05-14T05:49:37;94347.09;;;9.73;72.09
76086;BME280;64791;0.000;0.000;2023-05-14T05:52:03;94344.13;;;9.71;71.42
76086;BME280;64791;0.000;0.000;2023-05-14T05:54:29;94345.41;;;9.70;70.71
76086;BME280;64791;0.000;0.000;2023-05-14T05:56:56;94346.97;;;9.65;70.74
76086;BME280;64791;0.000;0.000;2023-05-14T05:59:22;94357.28;;;9.65;70.50
76086;BME280;64791;0.000;0.000;2023-05-14T06:01:47;94356.00;;;9.66;71.24
76086;BME280;64791;0.000;0.000;2023-05-14T06:04:13;94357.59;;;9.61;72.12
76086;BME280;64791;0.000;0.000;2023-05-14T06:06:38;94353.44;;;9.55;71.98
76086;BME280;64791;0.000;0.000;2023-05-14T06:09:04;94346.47;;;9.54;72.10
76086;BME280;64791;0.000;0.000;2023-05-14T06:11:31;94350.47;;;9.53;71.86
76086;BME280;64791;0.000;0.000;2023-05-14T06:13:56;94341.19;;;9.56;71.81
76086;BME280;64791;0.000;0.000;2023-05-14T06:16:22;94332.16;;;9.55;71.75
76086;BME280;64791;0.000;0.000;2023-05-14T06:18:47;94347.41;;;9.69;72.00
76086;BME280;64791;0.000;0.000;2023-05-14T06:21:13;94349.75;;;9.65;72.55
76086;BME280;64791;0.000;0.000;2023-05-14T06:23:39;94349.84;;;9.60;73.14
76086;BME280;64791;0.000;0.000;2023-05-14T06:26:05;94353.25;;;9.53;72.76
76086;BME280;64791;0.000;0.000;2023-05-14T06:28:31;94359.69;;;9.42;73.61
76086;BME280;64791;0.000;0.000;2023-05-14T06:30:56;94335.75;;;9.37;72.59
76086;BME280;64791;0.000;0.000;2023-05-14T06:33:22;94321.50;;;9.39;72.91
76086;BME280;64791;0.000;0.000;2023-05-14T06:35:55;94324.34;;;9.46;72.85
76086;BME280;64791;0.000;0.000;2023-05-14T06:38:20;94320.00;;;9.51;72.34
76086;BME280;64791;0.000;0.000;2023-05-14T06:40:46;94330.59;;;9.47;72.94
76086;BME280;64791;0.000;0.000;2023-05-14T06:43:11;94340.22;;;9.53;74.11
76086;BME280;64791;0.000;0.000;2023-05-14T06:45:37;94346.91;;;9.58;73.33
76086;BME280;64791;0.000;0.000;2023-05-14T06:48:03;94349.94;;;9.54;74.69
76086;BME280;64791;0.000;0.000;2023-05-14T06:50:28;94353.25;;;9.53;74.47
76086;BME280;64791;0.000;0.000;2023-05-14T06:52:55;94351.22;;;9.53;73.56
76086;BME280;64791;0.000;0.000;2023-05-14T06:55:20;94355.47;;;9.54;73.46
76086;BME280;64791;0.000;0.000;2023-05-14T06:57:46;94346.69;;;9.69;73.06
76086;BME280;64791;0.000;0.000;2023-05-14T07:00:12;94321.78;;;9.74;73.29
76086;BME280;64791;0.000;0.000;2023-05-14T07:02:38;94319.44;;;9.78;72.04
76086;BME280;64791;0.000;0.000;2023-05-14T07:05:04;94310.88;;;9.82;72.10
76086;BME280;64791;0.000;0.000;2023-05-14T07:07:29;94312.00;;;9.87;72.67
76086;BME280;64791;0.000;0.000;2023-05-14T07:09:55;94310.84;;;9.95;71.74
76086;BME280;64791;0.000;0.000;2023-05-14T07:12:21;94300.31;;;10.07;72.11
76086;BME280;64791;0.000;0.000;2023-05-14T07:14:46;94287.84;;;10.26;72.03
76086;BME280;64791;0.000;0.000;2023-05-14T07:17:12;94294.09;;;10.47;71.47
76086;BME280;64791;0.000;0.000;2023-05-14T07:19:37;94283.63;;;10.67;70.94
76086;BME280;64791;0.000;0.000;2023-05-14T07:22:03;94301.06;;;10.82;70.98
76086;BME280;64791;0.000;0.000;2023-05-14T07:24:28;94311.75;;;10.86;71.41
76086;BME280;64791;0.000;0.000;2023-05-14T07:26:54;94326.44;;;10.81;71.46
76086;BME280;64791;0.000;0.000;2023-05-14T07:29:21;94352.69;;;10.74;71.75
76086;BME280;64791;0.000;0.000;2023-05-14T07:31:47;94370.63;;;10.68;72.09
76086;BME280;64791;0.000;0.000;2023-05-14T07:34:12;94368.84;;;10.57;73.03
76086;BME280;64791;0.000;0.000;2023-05-14T07:36:38;94351.81;;;10.45;73.60
76086;BME280;64791;0.000;0.000;2023-05-14T07:39:04;94352.66;;;10.40;72.82
76086;BME280;64791;0.000;0.000;2023-05-14T07:41:29;94350.19;;;10.29;73.25
76086;BME280;64791;0.000;0.000;2023-05-14T07:43:55;94338.63;;;10.18;73.74
76086;BME280;64791;0.000;0.000;2023-05-14T07:46:20;94338.44;;;10.16;73.36
76086;BME280;64791;0.000;0.000;2023-05-14T07:48:46;94340.56;;;10.10;73.78
76086;BME280;64791;0.000;0.000;2023-05-14T07:51:11;94336.31;;;10.09;73.45
76086;BME280;64791;0.000;0.000;2023-05-14T07:53:37;94333.38;;;10.07;73.32
76086;BME280;64791;0.000;0.000;2023-05-14T07:56:02;94339.00;;;10.01;73.41
76086;BME280;64791;0.000;0.000;2023-05-14T07:58:28;94353.41;;;10.07;73.10
76086;BME280;64791;0.000;0.000;2023-05-14T08:00:54;94347.28;;;10.01;73.34
76086;BME280;64791;0.000;0.000;2023-05-14T08:03:20;94366.25;;;9.92;73.94
76086;BME280;64791;0.000;0.000;2023-05-14T08:05:46;94374.22;;;9.69;74.78
76086;BME280;64791;0.000;0.000;2023-05-14T08:08:11;94381.31;;;9.77;74.00
76086;BME280;64791;0.000;0.000;2023-05-14T08:10:37;94369.34;;;9.88;73.92
76086;BME280;64791;0.000;0.000;2023-05-14T08:13:03;94357.56;;;10.01;72.42
76086;BME280;64791;0.000;0.000;2023-05-14T08:15:28;94343.84;;;10.08;72.38
76086;BME280;64791;0.000;0.000;2023-05-14T08:17:54;94321.28;;;10.10;72.31
76086;BME280;64791;0.000;0.000;2023-05-14T08:20:20;94326.31;;;10.19;72.45
76086;BME280;64791;0.000;0.000;2023-05-14T08:22:45;94329.47;;;10.36;72.19
76086;BME280;64791;0.000;0.000;2023-05-14T08:25:11;94312.84;;;10.49;71.29
76086;BME280;64791;0.000;0.000;2023-05-14T08:27:36;94319.41;;;10.59;73.05
76086;BME280;64791;0.000;0.000;2023-05-14T08:30:02;94314.78;;;10.75;72.93
76086;BME280;64791;0.000;0.000;2023-05-14T08:32:28;94318.81;;;10.94;72.40
76086;BME280;64791;0.000;0.000;2023-05-14T08:34:54;94324.56;;;11.24;71.32
76086;BME280;64791;0.000;0.000;2023-05-14T08:37:19;94327.19;;;11.58;70.24
76086;BME280;64791;0.000;0.000;2023-05-14T08:39:45;94327.31;;;11.81;70.00
76086;BME280;64791;0.000;0.000;2023-05-14T08:42:11;94325.88;;;11.95;70.51
76086;BME280;64791;0.000;0.000;2023-05-14T08:44:37;94318.97;;;12.09;70.00
76086;BME280;64791;0.000;0.000;2023-05-14T08:47:04;94312.59;;;12.29;70.32
76086;BME280;64791;0.000;0.000;2023-05-14T08:49:40;94320.34;;;12.31;70.77
76086;BME280;64791;0.000;0.000;2023-05-14T08:52:06;94310.22;;;12.33;71.18
76086;BME280;64791;0.000;0.000;2023-05-14T08:54:33;94314.13;;;12.60;70.29
76086;BME280;64791;0.000;0.000;2023-05-14T08:56:58;94308.81;;;12.93;69.20
76086;BME280;64791;0.000;0.000;2023-05-14T08:59:24;94296.66;;;12.96;68.47
76086;BME280;64791;0.000;0.000;2023-05-14T09:01:52;94301.06;;;12.99;68.13
76086;BME280;64791;0.000;0.000;2023-05-14T09:04:19;94290.56;;;12.97;67.88
76086;BME280;64791;0.000;0.000;2023-05-14T09:06:55;94304.75;;;12.86;67.99
76086;BME280;64791;0.000;0.000;2023-05-14T09:09:21;94298.84;;;12.82;67.79
76086;BME280;64791;0.000;0.000;2023-05-14T09:11:47;94297.34;;;12.66;68.72
76086;BME280;64791;0.000;0.000;2023-05-14T09:14:12;94289.06;;;12.58;68.15
76086;BME280;64791;0.000;0.000;2023-05-14T09:16:38;94303.06;;;12.53;67.88
76086;BME280;64791;0.000;0.000;2023-05-14T09:19:06;94300.66;;;12.49;68.21
76086;BME280;64791;0.000;0.000;2023-05-14T09:21:32;94295.09;;;12.34;68.52
76086;BME280;64791;0.000;0.000;2023-05-14T09:23:58;94287.72;;;12.37;68.97
76086;BME280;64791;0.000;0.000;2023-05-14T09:26:24;94293.03;;;12.20;68.83
76086;BME280;64791;0.000;0.000;2023-05-14T09:28:53;94286.94;;;12.14;68.44
76086;BME280;64791;0.000;0.000;2023-05-14T09:31:20;94295.47;;;11.95;70.23
76086;BME280;64791;0.000;0.000;2023-05-14T09:33:52;94303.56;;;11.93;68.68
76086;BME280;64791;0.000;0.000;2023-05-14T09:36:18;94297.41;;;12.07;68.58
76086;BME280;64791;0.000;0.000;2023-05-14T09:38:43;94291.72;;;12.13;68.76
76086;BME280;64791;0.000;0.000;2023-05-14T09:41:09;94283.78;;;12.17;69.56
76086;BME280;64791;0.000;0.000;2023-05-14T09:43:34;94289.34;;;12.25;68.54
76086;BME280;64791;0.000;0.000;2023-05-14T09:46:00;94291.19;;;12.22;68.71
76086;BME280;64791;0.000;0.000;2023-05-14T09:48:25;94301.31;;;12.20;68.93
76086;BME280;64791;0.000;0.000;2023-05-14T09:50:51;94293.34;;;12.08;69.70
76086;BME280;64791;0.000;0.000;2023-05-14T09:53:16;94279.16;;;12.12;69.00
76086;BME280;64791;0.000;0.000;2023-05-14T09:55:43;94269.97;;;12.17;68.84
76086;BME280;64791;0.000;0.000;2023-05-14T09:58:09;94256.13;;;12.10;68.38
76086;BME280;64791;0.000;0.000;2023-05-14T10:00:35;94248.19;;;12.06;68.70
76086;BME280;64791;0.000;0.000;2023-05-14T10:03:04;94262.13;;;11.93;69.50
76086;BME280;64791;0.000;0.000;2023-05-14T10:05:34;94260.75;;;11.71;71.24
76086;BME280;64791;0.000;0.000;2023-05-14T10:08:08;94277.38;;;11.79;69.93
76086;BME280;64791;0.000;0.000;2023-05-14T10:10:34;94262.03;;;11.70;70.07
76086;BME280;64791;0.000;0.000;2023-05-14T10:13:05;94266.31;;;11.79;69.89
76086;BME280;64791;0.000;0.000;2023-05-14T10:15:33;94263.16;;;11.75;69.66
76086;BME280;64791;0.000;0.000;2023-05-14T10:18:02;94258.78;;;11.87;68.76
76086;BME280;64791;0.000;0.000;2023-05-14T10:20:29;94253.25;;;11.79;69.65
76086;BME280;64791;0.000;0.000;2023-05-14T10:22:55;94233.91;;;11.79;68.69
76086;BME280;64791;0.000;0.000;2023-05-14T10:25:21;94223.56;;;11.72;69.21
76086;BME280;64791;0.000;0.000;2023-05-14T10:27:47;94227.56;;;11.64;68.98
76086;BME280;64791;0.000;0.000;2023-05-14T10:30:12;94228.44;;;11.51;69.04
76086;BME280;64791;0.000;0.000;2023-05-14T10:32:38;94209.09;;;11.51;69.76
76086;BME280;64791;0.000;0.000;2023-05-14T10:35:18;94205.22;;;11.47;69.62
76086;BME280;64791;0.000;0.000;2023-05-14T10:37:49;94221.03;;;11.46;69.76
76086;BME280;64791;0.000;0.000;2023-05-14T10:40:15;94227.34;;;11.54;70.12
76086;BME280;64791;0.000;0.000;2023-05-14T10:42:42;94232.47;;;11.50;71.02
76086;BME280;64791;0.000;0.000;2023-05-14T10:45:09;94247.38;;;11.47;70.17
76086;BME280;64791;0.000;0.000;2023-05-14T10:47:35;94254.38;;;11.48;70.03
76086;BME280;64791;0.000;0.000;2023-05-14T10:50:02;94246.47;;;11.52;70.75
76086;BME280;64791;0.000;0.000;2023-05-14T10:52:28;94243.97;;;11.69;70.09
76086;BME280;64791;0.000;0.000;2023-05-14T10:54:54;94246.22;;;11.71;70.68
76086;BME280;64791;0.000;0.000;2023-05-14T10:57:22;94248.78;;;11.69;69.74
76086;BME280;64791;0.000;0.000;2023-05-14T10:59:48;94245.09;;;11.74;70.04
76086;BME280;64791;0.000;0.000;2023-05-14T11:04:56;94248.78;;;11.76;69.83
76086;BME280;64791;0.000;0.000;2023-05-14T11:07:23;94242.72;;;11.78;69.57
76086;BME280;64791;0.000;0.000;2023-05-14T11:09:49;94229.09;;;11.80;69.25
76086;BME280;64791;0.000;0.000;2023-05-14T11:12:15;94224.53;;;11.97;69.53
76086;BME280;64791;0.000;0.000;2023-05-14T11:14:41;94199.53;;;12.11;69.27
76086;BME280;64791;0.000;0.000;2023-05-14T11:17:07;94215.59;;;12.27;69.89
76086;BME280;64791;0.000;0.000;2023-05-14T11:19:33;94223.34;;;12.29;68.96
76086;BME280;64791;0.000;0.000;2023-05-14T11:21:58;94228.69;;;12.27;68.06
76086;BME280;64791;0.000;0.000;2023-05-14T11:24:25;94231.28;;;12.32;68.46
76086;BME280;64791;0.000;0.000;2023-05-14T11:26:51;94222.81;;;12.30;68.11
76086;BME280;64791;0.000;0.000;2023-05-14T11:29:17;94215.59;;;12.20;68.79
76086;BME280;64791;0.000;0.000;2023-05-14T11:31:43;94213.75;;;12.22;68.75
76086;BME280;64791;0.000;0.000;2023-05-14T11:34:09;94217.47;;;12.25;68.88
76086;BME280;64791;0.000;0.000;2023-05-14T11:36:37;94217.09;;;12.21;68.65
76086;BME280;64791;0.000;0.000;2023-05-14T11:39:03;94217.63;;;12.19;68.09
76086;BME280;64791;0.000;0.000;2023-05-14T11:41:28;94215.41;;;12.25;68.81
76086;BME280;64791;0.000;0.000;2023-05-14T11:43:55;94212.84;;;12.35;69.02
76086;BME280;64791;0.000;0.000;2023-05-14T11:46:21;94209.34;;;12.49;68.80
76086;BME280;64791;0.000;0.000;2023-05-14T11:48:46;94219.69;;;12.49;68.78
76086;BME280;64791;0.000;0.000;2023-05-14T11:51:12;94222.81;;;12.30;69.26
76086;BME280;64791;0.000;0.000;2023-05-14T11:53:38;94213.78;;;12.37;68.51
76086;BME280;64791;0.000;0.000;2023-05-14T11:56:03;94226.69;;;12.42;68.75
76086;BME280;64791;0.000;0.000;2023-05-14T11:58:32;94213.59;;;12.43;69.02
76086;BME280;64791;0.000;0.000;2023-05-14T12:00:58;94204.38;;;12.55;68.44
76086;BME280;64791;0.000;0.000;2023-05-14T12:03:24;94200.50;;;12.73;68.06
76086;BME280;64791;0.000;0.000;2023-05-14T12:05:57;94203.06;;;12.87;67.60
76086;BME280;64791;0.000;0.000;2023-05-14T12:08:27;94175.94;;;12.93;67.46
76086;BME280;64791;0.000;0.000;2023-05-14T12:10:53;94175.72;;;12.98;67.80
76086;BME280;64791;0.000;0.000;2023-05-14T12:13:19;94178.28;;;13.11;66.84
76086;BME280;64791;0.000;0.000;2023-05-14T12:16:11;94168.09;;;13.36;66.53
76086;BME280;64791;0.000;0.000;2023-05-14T12:18:37;94168.88;;;13.69;65.82
76086;BME280;64791;0.000;0.000;2023-05-14T12:21:03;94168.78;;;13.92;65.32
76086;BME280;64791;0.000;0.000;2023-05-14T12:23:29;94161.13;;;14.00;65.12
76086;BME280;64791;0.000;0.000;2023-05-14T12:25:59;94166.84;;;14.02;65.51
76086;BME280;64791;0.000;0.000;2023-05-14T12:28:25;94160.13;;;14.12;64.96
76086;BME280;64791;0.000;0.000;2023-05-14T12:30:55;94155.31;;;14.13;64.57
76086;BME280;64791;0.000;0.000;2023-05-14T12:33:21;94166.03;;;14.16;64.25
76086;BME280;64791;0.000;0.000;2023-05-14T12:35:48;94153.97;;;14.21;64.22
76086;BME280;64791;0.000;0.000;2023-05-14T12:38:13;94158.91;;;14.30;64.45
76086;BME280;64791;0.000;0.000;2023-05-14T12:40:39;94150.97;;;14.27;64.08
76086;BME280;64791;0.000;0.000;2023-05-14T12:43:05;94148.75;;;14.25;65.22
76086;BME280;64791;0.000;0.000;2023-05-14T12:45:30;94137.78;;;14.35;64.51
76086;BME280;64791;0.000;0.000;2023-05-14T12:47:56;94144.63;;;14.34;64.46
76086;BME280;64791;0.000;0.000;2023-05-14T12:50:22;94137.56;;;14.41;64.60
76086;BME280;64791;0.000;0.000;2023-05-14T12:52:47;94136.38;;;14.51;64.15
76086;BME280;64791;0.000;0.000;2023-05-14T12:55:13;94128.22;;;14.53;63.56
76086;BME280;64791;0.000;0.000;2023-05-14T12:57:38;94135.63;;;14.51;63.50
76086;BME280;64791;0.000;0.000;2023-05-14T13:00:04;94125.22;;;14.59;63.45
76086;BME280;64791;0.000;0.000;2023-05-14T13:02:32;94111.03;;;14.72;63.91
76086;BME280;64791;0.000;0.000;2023-05-14T13:04:57;94106.03;;;14.70;63.34
76086;BME280;64791;0.000;0.000;2023-05-14T13:07:23;94110.63;;;14.75;63.50
76086;BME280;64791;0.000;0.000;2023-05-14T13:09:49;94126.06;;;14.69;63.74
76086;BME280;64791;0.000;0.000;2023-05-14T13:12:14;94128.09;;;14.68;64.38
76086;BME280;64791;0.000;0.000;2023-05-14T13:14:40;94121.84;;;14.35;64.94